sensor_id;sensor_type;location;lat;lon;timestamp;P1;durP1;ratioP1;P2;durP2;ratioP2
34204;SDS011;20471;49.680;20.074;2023-05-10T00:01:35;23.10;;;13.20;;
34204;SDS011;20471;49.680;20.074;2023-05-10T00:04:03;19.70;;;12.40;;
34204;SDS011;20471;49.680;20.074;2023-05-10T00:06:31;19.00;;;10.50;;
34204;SDS011;20471;49.680;20.074;2023-05-10T00:08:59;20.10;;;11.70;;
34204;SDS011;20471;49.680;20.074;2023-05-10T00:11:27;16.30;;;11.00;;
34204;SDS011;20471;49.680;20.074;2023-05-10T00:13:55;15.40;;;10.60;;
34204;SDS011;20471;49.680;20.074;2023-05-10T00:16:23;16.00;;;10.30;;
34204;SDS011;20471;49.680;20.074;2023-05-10T00:18:52;20.50;;;9.80;;
34204;SDS011;20471;49.680;20.074;2023-05-10T00:21:20;14.60;;;9.00;;
34204;SDS011;20471;49.680;20.074;2023-05-10T00:23:49;15.40;;;9.50;;
34204;SDS011;20471;49.680;20.074;2023-05-10T00:26:17;16.20;;;8.40;;
34204;SDS011;20471;49.680;20.074;2023-05-10T00:28:45;15.80;;;9.60;;
34204;SDS011;20471;49.680;20.074;2023-05-10T00:31:13;18.30;;;9.00;;
34204;SDS011;20471;49.680;20.074;2023-05-10T00:33:41;18.80;;;10.20;;
34204;SDS011;20471;49.680;20.074;2023-05-10T00:36:09;17.90;;;9.40;;
34204;SDS011;20471;49.680;20.074;2023-05-10T00:38:37;14.70;;;8.80;;
34204;SDS011;20471;49.680;20.074;2023-05-10T00:41:05;17.10;;;8.90;;
34204;SDS011;20471;49.680;20.074;2023-05-10T00:43:33;14.80;;;9.20;;
34204;SDS011;20471;49.680;20.074;2023-05-10T00:46:01;16.60;;;9.70;;
34204;SDS011;20471;49.680;20.074;2023-05-10T00:48:29;16.90;;;8.90;;
34204;SDS011;20471;49.680;20.074;2023-05-10T00:50:57;16.90;;;9.20;;
34204;SDS011;20471;49.680;20.074;2023-05-10T00:53:25;19.00;;;8.40;;
34204;SDS011;20471;49.680;20.074;2023-05-10T00:55:55;12.80;;;8.10;;
34204;SDS011;20471;49.680;20.074;2023-05-10T00:58:23;11.80;;;7.40;;
34204;SDS011;20471;49.680;20.074;2023-05-10T01:00:54;10.90;;;7.60;;
34204;SDS011;20471;49.680;20.074;2023-05-10T01:03:24;12.70;;;8.50;;
34204;SDS011;20471;49.680;20.074;2023-05-10T01:05:53;16.50;;;10.40;;
34204;SDS011;20471;49.680;20.074;2023-05-10T01:08:21;16.90;;;9.20;;
34204;SDS011;20471;49.680;20.074;2023-05-10T01:10:49;12.80;;;7.30;;
34204;SDS011;20471;49.680;20.074;2023-05-10T01:13:23;9.80;;;7.20;;
34204;SDS011;20471;49.680;20.074;2023-05-10T01:16:05;13.30;;;7.10;;
34204;SDS011;20471;49.680;20.074;2023-05-10T01:18:35;10.60;;;7.30;;
34204;SDS011;20471;49.680;20.074;2023-05-10T01:27:17;9.50;;;6.50;;
34204;SDS011;20471;49.680;20.074;2023-05-10T01:35:43;8.40;;;6.70;;
34204;SDS011;20471;49.680;20.074;2023-05-10T01:38:38;9.80;;;6.10;;
34204;SDS011;20471;49.680;20.074;2023-05-10T01:47:01;14.50;;;10.50;;
34204;SDS011;20471;49.680;20.074;2023-05-10T01:52:08;13.50;;;10.40;;
34204;SDS011;20471;49.680;20.074;2023-05-10T01:54:41;11.30;;;7.80;;
34204;SDS011;20471;49.680;20.074;2023-05-10T01:57:12;9.40;;;6.70;;
34204;SDS011;20471;49.680;20.074;2023-05-10T01:59:43;12.60;;;7.60;;
34204;SDS011;20471;49.680;20.074;2023-05-10T02:02:13;12.70;;;7.80;;
34204;SDS011;20471;49.680;20.074;2023-05-10T02:04:43;12.20;;;8.10;;
34204;SDS011;20471;49.680;20.074;2023-05-10T02:07:12;12.60;;;8.10;;
34204;SDS011;20471;49.680;20.074;2023-05-10T02:09:43;10.70;;;7.10;;
34204;SDS011;20471;49.680;20.074;2023-05-10T02:12:14;11.60;;;7.30;;
34204;SDS011;20471;49.680;20.074;2023-05-10T02:14:43;10.60;;;7.30;;
34204;SDS011;20471;49.680;20.074;2023-05-10T02:17:12;11.30;;;7.70;;
34204;SDS011;20471;49.680;20.074;2023-05-10T02:19:41;13.70;;;8.30;;
34204;SDS011;20471;49.680;20.074;2023-05-10T02:22:11;8.90;;;6.90;;
34204;SDS011;20471;49.680;20.074;2023-05-10T02:24:41;11.90;;;7.30;;
34204;SDS011;20471;49.680;20.074;2023-05-10T02:27:10;8.30;;;6.50;;
34204;SDS011;20471;49.680;20.074;2023-05-10T02:29:40;9.60;;;6.80;;
34204;SDS011;20471;49.680;20.074;2023-05-10T02:32:09;10.50;;;7.70;;
34204;SDS011;20471;49.680;20.074;2023-05-10T02:34:38;11.70;;;8.50;;
34204;SDS011;20471;49.680;20.074;2023-05-10T02:37:07;14.60;;;8.90;;
34204;SDS011;20471;49.680;20.074;2023-05-10T02:39:35;11.00;;;7.90;;
34204;SDS011;20471;49.680;20.074;2023-05-10T02:42:06;9.30;;;7.00;;
34204;SDS011;20471;49.680;20.074;2023-05-10T02:44:35;12.20;;;8.10;;
34204;SDS011;20471;49.680;20.074;2023-05-10T02:47:05;13.60;;;8.10;;
34204;SDS011;20471;49.680;20.074;2023-05-10T02:49:33;13.00;;;9.20;;
34204;SDS011;20471;49.680;20.074;2023-05-10T02:52:03;12.60;;;8.80;;
34204;SDS011;20471;49.680;20.074;2023-05-10T02:54:39;15.90;;;8.60;;
34204;SDS011;20471;49.680;20.074;2023-05-10T02:57:15;15.20;;;8.90;;
34204;SDS011;20471;49.680;20.074;2023-05-10T02:59:45;16.60;;;9.10;;
34204;SDS011;20471;49.680;20.074;2023-05-10T03:02:13;9.30;;;7.60;;
34204;SDS011;20471;49.680;20.074;2023-05-10T03:04:41;10.50;;;6.90;;
34204;SDS011;20471;49.680;20.074;2023-05-10T03:07:09;10.00;;;7.40;;
34204;SDS011;20471;49.680;20.074;2023-05-10T03:09:38;11.10;;;8.20;;
34204;SDS011;20471;49.680;20.074;2023-05-10T03:12:07;13.00;;;9.40;;
34204;SDS011;20471;49.680;20.074;2023-05-10T03:15:00;10.70;;;8.40;;
34204;SDS011;20471;49.680;20.074;2023-05-10T03:17:52;11.90;;;8.90;;
34204;SDS011;20471;49.680;20.074;2023-05-10T03:20:25;15.20;;;9.30;;
34204;SDS011;20471;49.680;20.074;2023-05-10T03:23:02;13.80;;;8.90;;
34204;SDS011;20471;49.680;20.074;2023-05-10T03:25:35;17.00;;;8.70;;
34204;SDS011;20471;49.680;20.074;2023-05-10T03:28:03;14.90;;;8.40;;
34204;SDS011;20471;49.680;20.074;2023-05-10T03:30:32;16.10;;;8.70;;
34204;SDS011;20471;49.680;20.074;2023-05-10T03:33:05;12.70;;;9.20;;
34204;SDS011;20471;49.680;20.074;2023-05-10T03:35:34;14.40;;;9.60;;
34204;SDS011;20471;49.680;20.074;2023-05-10T03:38:02;16.30;;;11.10;;
34204;SDS011;20471;49.680;20.074;2023-05-10T03:40:30;19.30;;;9.90;;
34204;SDS011;20471;49.680;20.074;2023-05-10T03:42:59;23.10;;;10.70;;
34204;SDS011;20471;49.680;20.074;2023-05-10T03:45:27;22.20;;;10.50;;
34204;SDS011;20471;49.680;20.074;2023-05-10T03:47:55;14.00;;;9.80;;
34204;SDS011;20471;49.680;20.074;2023-05-10T03:50:23;19.50;;;9.60;;
34204;SDS011;20471;49.680;20.074;2023-05-10T03:52:52;16.80;;;8.90;;
34204;SDS011;20471;49.680;20.074;2023-05-10T03:55:20;14.80;;;7.70;;
34204;SDS011;20471;49.680;20.074;2023-05-10T03:57:48;14.30;;;7.80;;
34204;SDS011;20471;49.680;20.074;2023-05-10T04:00:17;10.60;;;7.50;;
34204;SDS011;20471;49.680;20.074;2023-05-10T04:02:45;14.30;;;7.00;;
34204;SDS011;20471;49.680;20.074;2023-05-10T04:05:13;10.40;;;7.20;;
34204;SDS011;20471;49.680;20.074;2023-05-10T04:07:41;30.30;;;17.70;;
34204;SDS011;20471;49.680;20.074;2023-05-10T04:10:10;30.10;;;17.00;;
34204;SDS011;20471;49.680;20.074;2023-05-10T04:12:39;26.40;;;16.30;;
34204;SDS011;20471;49.680;20.074;2023-05-10T04:15:07;26.30;;;15.80;;
34204;SDS011;20471;49.680;20.074;2023-05-10T04:17:36;17.80;;;11.60;;
34204;SDS011;20471;49.680;20.074;2023-05-10T04:20:04;20.50;;;12.80;;
34204;SDS011;20471;49.680;20.074;2023-05-10T04:22:32;23.60;;;13.60;;
34204;SDS011;20471;49.680;20.074;2023-05-10T04:25:01;68.50;;;44.40;;
34204;SDS011;20471;49.680;20.074;2023-05-10T04:27:29;39.40;;;25.00;;
34204;SDS011;20471;49.680;20.074;2023-05-10T04:29:58;23.80;;;13.90;;
34204;SDS011;20471;49.680;20.074;2023-05-10T04:32:26;22.70;;;13.40;;
34204;SDS011;20471;49.680;20.074;2023-05-10T04:34:54;20.90;;;15.20;;
34204;SDS011;20471;49.680;20.074;2023-05-10T04:37:22;29.50;;;18.20;;
34204;SDS011;20471;49.680;20.074;2023-05-10T04:39:50;29.40;;;18.50;;
34204;SDS011;20471;49.680;20.074;2023-05-10T04:42:18;29.00;;;18.40;;
34204;SDS011;20471;49.680;20.074;2023-05-10T04:44:46;51.90;;;31.70;;
34204;SDS011;20471;49.680;20.074;2023-05-10T04:47:14;65.50;;;36.20;;
34204;SDS011;20471;49.680;20.074;2023-05-10T04:49:42;61.40;;;36.40;;
34204;SDS011;20471;49.680;20.074;2023-05-10T04:52:11;51.20;;;31.90;;
34204;SDS011;20471;49.680;20.074;2023-05-10T04:54:39;41.90;;;26.20;;
34204;SDS011;20471;49.680;20.074;2023-05-10T04:57:07;26.10;;;18.40;;
34204;SDS011;20471;49.680;20.074;2023-05-10T04:59:35;26.90;;;15.80;;
34204;SDS011;20471;49.680;20.074;2023-05-10T05:02:04;23.20;;;14.10;;
34204;SDS011;20471;49.680;20.074;2023-05-10T05:04:32;21.70;;;12.90;;
34204;SDS011;20471;49.680;20.074;2023-05-10T05:07:00;18.60;;;10.90;;
34204;SDS011;20471;49.680;20.074;2023-05-10T05:09:29;17.30;;;12.60;;
34204;SDS011;20471;49.680;20.074;2023-05-10T05:11:58;21.70;;;13.30;;
34204;SDS011;20471;49.680;20.074;2023-05-10T05:14:26;19.90;;;13.70;;
34204;SDS011;20471;49.680;20.074;2023-05-10T05:16:54;17.90;;;12.80;;
34204;SDS011;20471;49.680;20.074;2023-05-10T05:19:23;22.50;;;13.60;;
34204;SDS011;20471;49.680;20.074;2023-05-10T05:21:51;22.80;;;13.70;;
34204;SDS011;20471;49.680;20.074;2023-05-10T05:24:19;19.70;;;11.60;;
34204;SDS011;20471;49.680;20.074;2023-05-10T05:26:47;19.30;;;11.10;;
34204;SDS011;20471;49.680;20.074;2023-05-10T05:29:15;20.50;;;11.20;;
34204;SDS011;20471;49.680;20.074;2023-05-10T05:31:43;16.00;;;10.20;;
34204;SDS011;20471;49.680;20.074;2023-05-10T05:34:12;17.50;;;10.70;;
34204;SDS011;20471;49.680;20.074;2023-05-10T05:36:40;17.30;;;11.00;;
34204;SDS011;20471;49.680;20.074;2023-05-10T05:39:08;18.90;;;11.00;;
34204;SDS011;20471;49.680;20.074;2023-05-10T05:41:36;17.30;;;11.10;;
34204;SDS011;20471;49.680;20.074;2023-05-10T05:44:04;19.60;;;10.30;;
34204;SDS011;20471;49.680;20.074;2023-05-10T05:46:32;18.60;;;10.30;;
34204;SDS011;20471;49.680;20.074;2023-05-10T05:49:01;18.30;;;10.40;;
34204;SDS011;20471;49.680;20.074;2023-05-10T05:51:29;17.20;;;11.00;;
34204;SDS011;20471;49.680;20.074;2023-05-10T05:53:58;16.20;;;10.60;;
34204;SDS011;20471;49.680;20.074;2023-05-10T05:56:26;15.90;;;10.60;;
34204;SDS011;20471;49.680;20.074;2023-05-10T05:58:54;18.20;;;10.20;;
34204;SDS011;20471;49.680;20.074;2023-05-10T06:01:23;35.50;;;19.00;;
34204;SDS011;20471;49.680;20.074;2023-05-10T06:03:51;46.60;;;24.80;;
34204;SDS011;20471;49.680;20.074;2023-05-10T06:06:19;58.00;;;27.70;;
34204;SDS011;20471;49.680;20.074;2023-05-10T06:08:47;52.70;;;26.80;;
34204;SDS011;20471;49.680;20.074;2023-05-10T06:11:15;44.40;;;23.10;;
34204;SDS011;20471;49.680;20.074;2023-05-10T06:13:43;38.10;;;21.60;;
34204;SDS011;20471;49.680;20.074;2023-05-10T06:16:11;28.90;;;17.10;;
34204;SDS011;20471;49.680;20.074;2023-05-10T06:18:40;29.20;;;15.00;;
34204;SDS011;20471;49.680;20.074;2023-05-10T06:21:08;24.80;;;12.80;;
34204;SDS011;20471;49.680;20.074;2023-05-10T06:23:36;25.70;;;13.60;;
34204;SDS011;20471;49.680;20.074;2023-05-10T06:26:04;23.50;;;12.40;;
34204;SDS011;20471;49.680;20.074;2023-05-10T06:28:32;17.20;;;11.00;;
34204;SDS011;20471;49.680;20.074;2023-05-10T06:31:00;14.10;;;8.80;;
34204;SDS011;20471;49.680;20.074;2023-05-10T06:33:28;17.80;;;9.10;;
34204;SDS011;20471;49.680;20.074;2023-05-10T06:35:56;13.90;;;8.90;;
34204;SDS011;20471;49.680;20.074;2023-05-10T06:38:25;14.20;;;8.20;;
34204;SDS011;20471;49.680;20.074;2023-05-10T06:40:53;11.80;;;7.20;;
34204;SDS011;20471;49.680;20.074;2023-05-10T06:43:22;9.20;;;7.30;;
34204;SDS011;20471;49.680;20.074;2023-05-10T06:45:51;14.30;;;8.00;;
34204;SDS011;20471;49.680;20.074;2023-05-10T06:48:19;11.80;;;7.10;;
34204;SDS011;20471;49.680;20.074;2023-05-10T06:50:47;9.40;;;6.00;;
34204;SDS011;20471;49.680;20.074;2023-05-10T06:53:15;17.00;;;7.30;;
34204;SDS011;20471;49.680;20.074;2023-05-10T06:55:44;12.20;;;6.50;;
34204;SDS011;20471;49.680;20.074;2023-05-10T06:58:12;11.50;;;6.40;;
34204;SDS011;20471;49.680;20.074;2023-05-10T07:00:40;13.50;;;6.10;;
34204;SDS011;20471;49.680;20.074;2023-05-10T07:03:10;8.60;;;5.80;;
34204;SDS011;20471;49.680;20.074;2023-05-10T07:05:38;9.50;;;5.40;;
34204;SDS011;20471;49.680;20.074;2023-05-10T07:08:06;10.80;;;4.90;;
34204;SDS011;20471;49.680;20.074;2023-05-10T07:10:34;9.20;;;4.50;;
34204;SDS011;20471;49.680;20.074;2023-05-10T07:13:02;7.60;;;4.30;;
34204;SDS011;20471;49.680;20.074;2023-05-10T07:15:31;4.40;;;3.70;;
34204;SDS011;20471;49.680;20.074;2023-05-10T07:17:59;5.40;;;4.20;;
34204;SDS011;20471;49.680;20.074;2023-05-10T07:20:28;6.60;;;3.20;;
34204;SDS011;20471;49.680;20.074;2023-05-10T07:22:56;3.90;;;2.80;;
34204;SDS011;20471;49.680;20.074;2023-05-10T07:25:24;3.30;;;2.50;;
34204;SDS011;20471;49.680;20.074;2023-05-10T07:27:52;3.80;;;2.50;;
34204;SDS011;20471;49.680;20.074;2023-05-10T07:30:20;3.70;;;3.10;;
34204;SDS011;20471;49.680;20.074;2023-05-10T07:32:48;4.60;;;2.50;;
34204;SDS011;20471;49.680;20.074;2023-05-10T07:35:16;2.70;;;2.20;;
34204;SDS011;20471;49.680;20.074;2023-05-10T07:37:45;3.60;;;2.80;;
34204;SDS011;20471;49.680;20.074;2023-05-10T07:40:14;3.30;;;2.50;;
34204;SDS011;20471;49.680;20.074;2023-05-10T07:42:42;5.40;;;2.40;;
34204;SDS011;20471;49.680;20.074;2023-05-10T07:45:11;4.80;;;2.40;;
34204;SDS011;20471;49.680;20.074;2023-05-10T07:47:39;9.00;;;3.10;;
34204;SDS011;20471;49.680;20.074;2023-05-10T07:50:07;3.00;;;2.70;;
34204;SDS011;20471;49.680;20.074;2023-05-10T07:52:35;4.20;;;2.40;;
34204;SDS011;20471;49.680;20.074;2023-05-10T07:55:03;2.70;;;2.40;;
34204;SDS011;20471;49.680;20.074;2023-05-10T07:57:34;4.50;;;1.80;;
34204;SDS011;20471;49.680;20.074;2023-05-10T08:00:02;3.30;;;2.10;;
34204;SDS011;20471;49.680;20.074;2023-05-10T08:02:31;3.10;;;2.10;;
34204;SDS011;20471;49.680;20.074;2023-05-10T08:04:59;1.70;;;1.60;;
34204;SDS011;20471;49.680;20.074;2023-05-10T08:07:27;3.00;;;2.20;;
34204;SDS011;20471;49.680;20.074;2023-05-10T08:09:55;6.60;;;2.20;;
34204;SDS011;20471;49.680;20.074;2023-05-10T08:12:23;5.70;;;1.90;;
34204;SDS011;20471;49.680;20.074;2023-05-10T08:14:51;2.20;;;1.80;;
34204;SDS011;20471;49.680;20.074;2023-05-10T08:17:20;4.90;;;2.80;;
34204;SDS011;20471;49.680;20.074;2023-05-10T08:19:48;2.40;;;2.20;;
34204;SDS011;20471;49.680;20.074;2023-05-10T08:22:16;4.10;;;2.40;;
34204;SDS011;20471;49.680;20.074;2023-05-10T08:24:44;2.90;;;2.00;;
34204;SDS011;20471;49.680;20.074;2023-05-10T08:27:12;2.50;;;2.00;;
34204;SDS011;20471;49.680;20.074;2023-05-10T08:29:40;6.20;;;2.40;;
34204;SDS011;20471;49.680;20.074;2023-05-10T08:32:08;3.10;;;2.30;;
34204;SDS011;20471;49.680;20.074;2023-05-10T08:34:37;3.00;;;1.90;;
34204;SDS011;20471;49.680;20.074;2023-05-10T08:37:05;3.40;;;2.20;;
34204;SDS011;20471;49.680;20.074;2023-05-10T08:39:36;4.80;;;2.10;;
34204;SDS011;20471;49.680;20.074;2023-05-10T08:42:05;2.20;;;2.00;;
34204;SDS011;20471;49.680;20.074;2023-05-10T08:44:35;2.20;;;2.00;;
34204;SDS011;20471;49.680;20.074;2023-05-10T08:47:05;2.70;;;2.20;;
34204;SDS011;20471;49.680;20.074;2023-05-10T08:49:34;2.90;;;1.90;;
34204;SDS011;20471;49.680;20.074;2023-05-10T08:52:03;2.60;;;2.00;;
34204;SDS011;20471;49.680;20.074;2023-05-10T08:54:34;2.50;;;1.80;;
34204;SDS011;20471;49.680;20.074;2023-05-10T08:57:02;3.90;;;2.30;;
34204;SDS011;20471;49.680;20.074;2023-05-10T08:59:31;2.20;;;2.00;;
34204;SDS011;20471;49.680;20.074;2023-05-10T09:01:59;2.70;;;1.80;;
34204;SDS011;20471;49.680;20.074;2023-05-10T09:04:29;2.90;;;1.80;;
34204;SDS011;20471;49.680;20.074;2023-05-10T09:06:58;2.50;;;1.70;;
34204;SDS011;20471;49.680;20.074;2023-05-10T09:09:26;2.30;;;2.10;;
34204;SDS011;20471;49.680;20.074;2023-05-10T09:11:55;2.40;;;2.10;;
34204;SDS011;20471;49.680;20.074;2023-05-10T09:14:24;2.20;;;1.90;;
34204;SDS011;20471;49.680;20.074;2023-05-10T09:16:53;2.40;;;2.10;;
34204;SDS011;20471;49.680;20.074;2023-05-10T09:19:22;4.90;;;2.20;;
34204;SDS011;20471;49.680;20.074;2023-05-10T09:21:50;2.40;;;2.10;;
34204;SDS011;20471;49.680;20.074;2023-05-10T09:24:18;2.10;;;1.90;;
34204;SDS011;20471;49.680;20.074;2023-05-10T09:26:47;2.50;;;2.00;;
34204;SDS011;20471;49.680;20.074;2023-05-10T09:29:16;2.20;;;2.00;;
34204;SDS011;20471;49.680;20.074;2023-05-10T09:34:30;4.40;;;3.60;;
34204;SDS011;20471;49.680;20.074;2023-05-10T09:37:02;4.10;;;2.20;;
34204;SDS011;20471;49.680;20.074;2023-05-10T10:13:28;3.00;;;2.40;;
34204;SDS011;20471;49.680;20.074;2023-05-10T10:15:58;5.10;;;2.40;;
34204;SDS011;20471;49.680;20.074;2023-05-10T10:18:26;4.00;;;2.70;;
34204;SDS011;20471;49.680;20.074;2023-05-10T10:20:55;3.30;;;2.20;;
34204;SDS011;20471;49.680;20.074;2023-05-10T10:23:24;4.20;;;2.60;;
34204;SDS011;20471;49.680;20.074;2023-05-10T10:25:53;2.80;;;2.50;;
34204;SDS011;20471;49.680;20.074;2023-05-10T10:28:24;4.10;;;2.30;;
34204;SDS011;20471;49.680;20.074;2023-05-10T10:34:06;2.90;;;2.10;;
34204;SDS011;20471;49.680;20.074;2023-05-10T10:36:40;2.60;;;2.20;;
34204;SDS011;20471;49.680;20.074;2023-05-10T10:39:10;2.60;;;2.10;;
34204;SDS011;20471;49.680;20.074;2023-05-10T10:41:40;2.10;;;1.90;;
34204;SDS011;20471;49.680;20.074;2023-05-10T10:47:04;2.30;;;2.10;;
34204;SDS011;20471;49.680;20.074;2023-05-10T10:55:05;2.80;;;2.30;;
34204;SDS011;20471;49.680;20.074;2023-05-10T11:00:19;5.10;;;1.90;;
34204;SDS011;20471;49.680;20.074;2023-05-10T11:05:35;3.20;;;1.80;;
34204;SDS011;20471;49.680;20.074;2023-05-10T11:08:12;2.10;;;2.00;;
34204;SDS011;20471;49.680;20.074;2023-05-10T11:10:50;3.40;;;2.00;;
34204;SDS011;20471;49.680;20.074;2023-05-10T11:13:38;2.90;;;2.20;;
34204;SDS011;20471;49.680;20.074;2023-05-10T11:16:15;3.60;;;2.10;;
34204;SDS011;20471;49.680;20.074;2023-05-10T11:19:03;3.30;;;2.00;;
34204;SDS011;20471;49.680;20.074;2023-05-10T11:21:44;3.80;;;2.00;;
34204;SDS011;20471;49.680;20.074;2023-05-10T11:24:22;4.90;;;2.10;;
34204;SDS011;20471;49.680;20.074;2023-05-10T11:26:54;4.70;;;2.00;;
34204;SDS011;20471;49.680;20.074;2023-05-10T11:29:23;2.40;;;1.90;;
34204;SDS011;20471;49.680;20.074;2023-05-10T11:31:52;4.40;;;2.30;;
34204;SDS011;20471;49.680;20.074;2023-05-10T11:34:25;1.50;;;1.40;;
34204;SDS011;20471;49.680;20.074;2023-05-10T11:36:56;3.90;;;2.40;;
34204;SDS011;20471;49.680;20.074;2023-05-10T11:39:26;2.40;;;1.90;;
34204;SDS011;20471;49.680;20.074;2023-05-10T11:41:55;3.00;;;2.00;;
34204;SDS011;20471;49.680;20.074;2023-05-10T11:44:30;3.40;;;1.80;;
34204;SDS011;20471;49.680;20.074;2023-05-10T11:47:03;2.70;;;2.00;;
34204;SDS011;20471;49.680;20.074;2023-05-10T11:49:31;6.20;;;1.80;;
34204;SDS011;20471;49.680;20.074;2023-05-10T11:52:06;2.00;;;1.80;;
34204;SDS011;20471;49.680;20.074;2023-05-10T11:54:35;2.10;;;1.90;;
34204;SDS011;20471;49.680;20.074;2023-05-10T11:57:03;2.30;;;2.00;;
34204;SDS011;20471;49.680;20.074;2023-05-10T11:59:32;3.20;;;2.30;;
34204;SDS011;20471;49.680;20.074;2023-05-10T12:02:00;4.20;;;2.00;;
34204;SDS011;20471;49.680;20.074;2023-05-10T12:04:28;3.30;;;2.10;;
34204;SDS011;20471;49.680;20.074;2023-05-10T12:06:57;3.90;;;2.00;;
34204;SDS011;20471;49.680;20.074;2023-05-10T12:09:25;4.00;;;2.20;;
34204;SDS011;20471;49.680;20.074;2023-05-10T12:11:55;2.30;;;1.90;;
34204;SDS011;20471;49.680;20.074;2023-05-10T12:14:24;4.90;;;2.00;;
34204;SDS011;20471;49.680;20.074;2023-05-10T12:16:52;6.60;;;2.50;;
34204;SDS011;20471;49.680;20.074;2023-05-10T12:19:20;3.80;;;1.90;;
34204;SDS011;20471;49.680;20.074;2023-05-10T12:21:49;4.20;;;1.80;;
34204;SDS011;20471;49.680;20.074;2023-05-10T12:24:17;3.20;;;2.00;;
34204;SDS011;20471;49.680;20.074;2023-05-10T12:26:47;4.90;;;2.30;;
34204;SDS011;20471;49.680;20.074;2023-05-10T12:29:17;5.40;;;1.90;;
34204;SDS011;20471;49.680;20.074;2023-05-10T12:34:31;2.10;;;1.90;;
34204;SDS011;20471;49.680;20.074;2023-05-10T12:37:02;2.50;;;1.90;;
34204;SDS011;20471;49.680;20.074;2023-05-10T12:39:38;3.40;;;1.70;;
34204;SDS011;20471;49.680;20.074;2023-05-10T12:42:07;2.20;;;1.90;;
34204;SDS011;20471;49.680;20.074;2023-05-10T12:44:36;2.10;;;1.90;;
34204;SDS011;20471;49.680;20.074;2023-05-10T12:47:04;3.30;;;1.70;;
34204;SDS011;20471;49.680;20.074;2023-05-10T12:49:33;4.20;;;2.00;;
34204;SDS011;20471;49.680;20.074;2023-05-10T12:52:01;2.00;;;1.90;;
34204;SDS011;20471;49.680;20.074;2023-05-10T12:54:30;2.40;;;2.20;;
34204;SDS011;20471;49.680;20.074;2023-05-10T12:56:58;4.50;;;2.10;;
34204;SDS011;20471;49.680;20.074;2023-05-10T12:59:26;3.20;;;2.10;;
34204;SDS011;20471;49.680;20.074;2023-05-10T13:01:55;2.60;;;2.20;;
34204;SDS011;20471;49.680;20.074;2023-05-10T13:04:23;4.20;;;2.30;;
34204;SDS011;20471;49.680;20.074;2023-05-10T13:06:51;2.20;;;1.90;;
34204;SDS011;20471;49.680;20.074;2023-05-10T13:09:21;3.90;;;2.50;;
34204;SDS011;20471;49.680;20.074;2023-05-10T13:11:50;3.20;;;1.90;;
34204;SDS011;20471;49.680;20.074;2023-05-10T13:14:19;3.20;;;1.90;;
34204;SDS011;20471;49.680;20.074;2023-05-10T13:16:48;3.30;;;2.20;;
34204;SDS011;20471;49.680;20.074;2023-05-10T13:19:16;3.90;;;2.10;;
34204;SDS011;20471;49.680;20.074;2023-05-10T13:21:45;3.90;;;2.40;;
34204;SDS011;20471;49.680;20.074;2023-05-10T13:24:14;2.90;;;2.00;;
34204;SDS011;20471;49.680;20.074;2023-05-10T13:26:42;2.90;;;1.90;;
34204;SDS011;20471;49.680;20.074;2023-05-10T13:29:11;3.40;;;2.10;;
34204;SDS011;20471;49.680;20.074;2023-05-10T13:31:39;2.60;;;2.10;;
34204;SDS011;20471;49.680;20.074;2023-05-10T13:34:07;3.90;;;2.10;;
34204;SDS011;20471;49.680;20.074;2023-05-10T13:36:35;5.40;;;2.20;;
34204;SDS011;20471;49.680;20.074;2023-05-10T13:39:03;4.60;;;2.30;;
34204;SDS011;20471;49.680;20.074;2023-05-10T13:41:31;4.20;;;2.30;;
34204;SDS011;20471;49.680;20.074;2023-05-10T13:44:00;3.50;;;2.30;;
34204;SDS011;20471;49.680;20.074;2023-05-10T13:46:29;6.00;;;2.10;;
34204;SDS011;20471;49.680;20.074;2023-05-10T13:48:57;2.00;;;1.80;;
34204;SDS011;20471;49.680;20.074;2023-05-10T13:51:26;3.60;;;1.80;;
34204;SDS011;20471;49.680;20.074;2023-05-10T13:53:54;2.60;;;2.00;;
34204;SDS011;20471;49.680;20.074;2023-05-10T13:56:22;5.20;;;1.90;;
34204;SDS011;20471;49.680;20.074;2023-05-10T13:58:51;4.30;;;2.00;;
34204;SDS011;20471;49.680;20.074;2023-05-10T14:01:19;4.00;;;1.80;;
34204;SDS011;20471;49.680;20.074;2023-05-10T14:03:47;2.30;;;1.80;;
34204;SDS011;20471;49.680;20.074;2023-05-10T14:06:15;4.10;;;1.70;;
34204;SDS011;20471;49.680;20.074;2023-05-10T14:08:43;2.00;;;1.80;;
34204;SDS011;20471;49.680;20.074;2023-05-10T14:11:12;2.90;;;2.00;;
34204;SDS011;20471;49.680;20.074;2023-05-10T14:13:40;4.40;;;2.00;;
34204;SDS011;20471;49.680;20.074;2023-05-10T14:16:08;2.50;;;1.90;;
34204;SDS011;20471;49.680;20.074;2023-05-10T14:18:36;2.10;;;1.80;;
34204;SDS011;20471;49.680;20.074;2023-05-10T14:21:05;4.70;;;2.20;;
34204;SDS011;20471;49.680;20.074;2023-05-10T14:23:33;2.20;;;1.50;;
34204;SDS011;20471;49.680;20.074;2023-05-10T14:26:02;4.80;;;1.80;;
34204;SDS011;20471;49.680;20.074;2023-05-10T14:28:30;5.20;;;1.90;;
34204;SDS011;20471;49.680;20.074;2023-05-10T14:30:59;4.30;;;2.40;;
34204;SDS011;20471;49.680;20.074;2023-05-10T14:33:27;4.10;;;1.80;;
34204;SDS011;20471;49.680;20.074;2023-05-10T14:35:55;2.60;;;2.20;;
34204;SDS011;20471;49.680;20.074;2023-05-10T14:38:24;3.00;;;2.20;;
34204;SDS011;20471;49.680;20.074;2023-05-10T14:40:53;5.50;;;2.20;;
34204;SDS011;20471;49.680;20.074;2023-05-10T14:43:21;2.90;;;2.10;;
34204;SDS011;20471;49.680;20.074;2023-05-10T14:45:49;2.30;;;1.90;;
34204;SDS011;20471;49.680;20.074;2023-05-10T14:48:17;4.30;;;2.00;;
34204;SDS011;20471;49.680;20.074;2023-05-10T14:50:45;2.80;;;2.40;;
34204;SDS011;20471;49.680;20.074;2023-05-10T14:53:13;7.10;;;2.30;;
34204;SDS011;20471;49.680;20.074;2023-05-10T14:55:42;4.90;;;2.20;;
34204;SDS011;20471;49.680;20.074;2023-05-10T14:58:10;3.50;;;2.40;;
34204;SDS011;20471;49.680;20.074;2023-05-10T15:00:38;8.20;;;2.50;;
34204;SDS011;20471;49.680;20.074;2023-05-10T15:03:06;2.80;;;1.90;;
34204;SDS011;20471;49.680;20.074;2023-05-10T15:05:34;4.60;;;2.50;;
34204;SDS011;20471;49.680;20.074;2023-05-10T15:08:04;4.40;;;2.10;;
34204;SDS011;20471;49.680;20.074;2023-05-10T15:10:32;2.10;;;1.80;;
34204;SDS011;20471;49.680;20.074;2023-05-10T15:13:00;4.20;;;2.30;;
34204;SDS011;20471;49.680;20.074;2023-05-10T15:15:29;1.90;;;1.80;;
34204;SDS011;20471;49.680;20.074;2023-05-10T15:17:57;4.00;;;2.20;;
34204;SDS011;20471;49.680;20.074;2023-05-10T15:20:25;4.30;;;1.80;;
34204;SDS011;20471;49.680;20.074;2023-05-10T15:22:53;3.20;;;2.10;;
34204;SDS011;20471;49.680;20.074;2023-05-10T15:25:22;3.40;;;1.90;;
34204;SDS011;20471;49.680;20.074;2023-05-10T15:27:50;5.60;;;2.40;;
34204;SDS011;20471;49.680;20.074;2023-05-10T15:30:18;5.70;;;2.40;;
34204;SDS011;20471;49.680;20.074;2023-05-10T15:32:46;5.00;;;2.40;;
34204;SDS011;20471;49.680;20.074;2023-05-10T15:35:14;3.10;;;2.40;;
34204;SDS011;20471;49.680;20.074;2023-05-10T15:37:43;2.30;;;2.10;;
34204;SDS011;20471;49.680;20.074;2023-05-10T15:40:12;2.60;;;2.40;;
34204;SDS011;20471;49.680;20.074;2023-05-10T15:42:40;3.70;;;2.40;;
34204;SDS011;20471;49.680;20.074;2023-05-10T15:45:09;5.10;;;2.10;;
34204;SDS011;20471;49.680;20.074;2023-05-10T15:47:38;2.60;;;2.00;;
34204;SDS011;20471;49.680;20.074;2023-05-10T15:50:06;3.00;;;2.50;;
34204;SDS011;20471;49.680;20.074;2023-05-10T15:52:35;7.00;;;2.90;;
34204;SDS011;20471;49.680;20.074;2023-05-10T15:55:04;3.20;;;2.30;;